sensor_id;sensor_type;location;lat;lon;timestamp;temperature;humidity
43185;DHT22;28803;52.308;19.096;2022-11-15T00:01:09;4.60;99.90
43185;DHT22;28803;52.308;19.096;2022-11-15T00:03:36;4.70;99.90
43185;DHT22;28803;52.308;19.096;2022-11-15T00:06:03;4.70;99.90
43185;DHT22;28803;52.308;19.096;2022-11-15T00:08:32;4.70;99.90
43185;DHT22;28803;52.308;19.096;2022-11-15T00:11:00;4.70;99.90
43185;DHT22;28803;52.308;19.096;2022-11-15T00:13:29;4.70;99.90
43185;DHT22;28803;52.308;19.096;2022-11-15T00:15:58;4.70;99.90
43185;DHT22;28803;52.308;19.096;2022-11-15T00:18:26;4.70;99.90
43185;DHT22;28803;52.308;19.096;2022-11-15T00:20:54;4.80;99.90
43185;DHT22;28803;52.308;19.096;2022-11-15T00:23:21;4.70;99.90
43185;DHT22;28803;52.308;19.096;2022-11-15T00:25:55;4.80;99.90
43185;DHT22;28803;52.308;19.096;2022-11-15T00:28:24;4.80;99.90
43185;DHT22;28803;52.308;19.096;2022-11-15T00:30:51;4.80;99.90
43185;DHT22;28803;52.308;19.096;2022-11-15T00:33:19;4.80;99.90
43185;DHT22;28803;52.308;19.096;2022-11-15T00:35:45;4.80;99.90
43185;DHT22;28803;52.308;19.096;2022-11-15T00:38:13;4.80;99.90
43185;DHT22;28803;52.308;19.096;2022-11-15T00:40:40;4.90;99.90
43185;DHT22;28803;52.308;19.096;2022-11-15T00:43:07;4.90;99.90
43185;DHT22;28803;52.308;19.096;2022-11-15T00:45:34;4.90;99.90
43185;DHT22;28803;52.308;19.096;2022-11-15T00:48:02;4.90;99.90
43185;DHT22;28803;52.308;19.096;2022-11-15T00:50:29;4.90;99.90
43185;DHT22;28803;52.308;19.096;2022-11-15T00:52:56;4.90;99.90
43185;DHT22;28803;52.308;19.096;2022-11-15T00:55:23;4.90;99.90
43185;DHT22;28803;52.308;19.096;2022-11-15T00:57:50;4.90;99.90
43185;DHT22;28803;52.308;19.096;2022-11-15T01:00:17;5.00;99.90
43185;DHT22;28803;52.308;19.096;2022-11-15T01:02:44;4.90;99.90
43185;DHT22;28803;52.308;19.096;2022-11-15T01:05:11;5.00;99.90
43185;DHT22;28803;52.308;19.096;2022-11-15T01:07:38;5.00;99.90
43185;DHT22;28803;52.308;19.096;2022-11-15T01:10:06;5.00;99.90
43185;DHT22;28803;52.308;19.096;2022-11-15T01:12:33;5.00;99.90
43185;DHT22;28803;52.308;19.096;2022-11-15T01:15:00;5.00;99.90
43185;DHT22;28803;52.308;19.096;2022-11-15T01:17:27;5.00;99.90
43185;DHT22;28803;52.308;19.096;2022-11-15T01:19:54;5.00;99.90
43185;DHT22;28803;52.308;19.096;2022-11-15T01:22:21;5.00;99.90
43185;DHT22;28803;52.308;19.096;2022-11-15T01:24:51;5.00;99.90
43185;DHT22;28803;52.308;19.096;2022-11-15T01:27:18;5.00;99.90
43185;DHT22;28803;52.308;19.096;2022-11-15T01:29:45;5.00;99.90
43185;DHT22;28803;52.308;19.096;2022-11-15T01:32:12;5.00;99.90
43185;DHT22;28803;52.308;19.096;2022-11-15T01:34:39;5.00;99.90
43185;DHT22;28803;52.308;19.096;2022-11-15T01:37:07;5.00;99.90
43185;DHT22;28803;52.308;19.096;2022-11-15T01:39:33;5.00;99.90
43185;DHT22;28803;52.308;19.096;2022-11-15T01:42:01;5.00;99.90
43185;DHT22;28803;52.308;19.096;2022-11-15T01:47:29;5.00;99.90
43185;DHT22;28803;52.308;19.096;2022-11-15T01:49:55;5.00;99.90
43185;DHT22;28803;52.308;19.096;2022-11-15T01:52:25;5.00;99.90
43185;DHT22;28803;52.308;19.096;2022-11-15T01:55:42;5.00;99.90
43185;DHT22;28803;52.308;19.096;2022-11-15T01:57:47;5.00;99.90
43185;DHT22;28803;52.308;19.096;2022-11-15T02:00:15;5.00;99.90
43185;DHT22;28803;52.308;19.096;2022-11-15T02:02:42;5.00;99.90
43185;DHT22;28803;52.308;19.096;2022-11-15T02:05:10;5.00;99.90
43185;DHT22;28803;52.308;19.096;2022-11-15T02:07:37;5.00;99.90
43185;DHT22;28803;52.308;19.096;2022-11-15T02:10:17;5.00;99.90
43185;DHT22;28803;52.308;19.096;2022-11-15T02:12:46;5.00;99.90
43185;DHT22;28803;52.308;19.096;2022-11-15T02:15:13;5.00;99.90
43185;DHT22;28803;52.308;19.096;2022-11-15T02:23:13;5.00;99.90
43185;DHT22;28803;52.308;19.096;2022-11-15T02:31:45;5.10;99.90
43185;DHT22;28803;52.308;19.096;2022-11-15T02:37:21;5.00;99.90
43185;DHT22;28803;52.308;19.096;2022-11-15T02:40:06;5.00;99.90
43185;DHT22;28803;52.308;19.096;2022-11-15T02:42:36;5.00;99.90
43185;DHT22;28803;52.308;19.096;2022-11-15T02:45:37;5.00;99.90
43185;DHT22;28803;52.308;19.096;2022-11-15T02:48:07;5.00;99.90
43185;DHT22;28803;52.308;19.096;2022-11-15T02:50:36;5.00;99.90
43185;DHT22;28803;52.308;19.096;2022-11-15T02:53:03;5.00;99.90
43185;DHT22;28803;52.308;19.096;2022-11-15T02:55:33;5.10;99.90
43185;DHT22;28803;52.308;19.096;2022-11-15T03:04:43;5.00;99.90
43185;DHT22;28803;52.308;19.096;2022-11-15T03:07:00;5.10;99.90
43185;DHT22;28803;52.308;19.096;2022-11-15T03:09:34;5.10;99.90
43185;DHT22;28803;52.308;19.096;2022-11-15T03:12:11;5.00;99.90
43185;DHT22;28803;52.308;19.096;2022-11-15T03:15:01;5.00;99.90
43185;DHT22;28803;52.308;19.096;2022-11-15T03:17:43;5.00;99.90
43185;DHT22;28803;52.308;19.096;2022-11-15T03:20:13;5.00;99.90
43185;DHT22;28803;52.308;19.096;2022-11-15T03:22:44;5.00;99.90
43185;DHT22;28803;52.308;19.096;2022-11-15T03:25:17;5.00;99.90
43185;DHT22;28803;52.308;19.096;2022-11-15T03:27:52;5.00;99.90
43185;DHT22;28803;52.308;19.096;2022-11-15T03:30:20;5.00;99.90
43185;DHT22;28803;52.308;19.096;2022-11-15T03:32:53;5.00;99.90
43185;DHT22;28803;52.308;19.096;2022-11-15T03:35:23;5.00;99.90
43185;DHT22;28803;52.308;19.096;2022-11-15T03:40:45;5.00;99.90
43185;DHT22;28803;52.308;19.096;2022-11-15T03:45:55;5.00;99.90
43185;DHT22;28803;52.308;19.096;2022-11-15T03:48:29;4.90;99.90
43185;DHT22;28803;52.308;19.096;2022-11-15T03:50:57;4.90;99.90
43185;DHT22;28803;52.308;19.096;2022-11-15T03:53:25;5.00;99.90
43185;DHT22;28803;52.308;19.096;2022-11-15T03:55:52;5.00;99.90
43185;DHT22;28803;52.308;19.096;2022-11-15T03:58:19;4.90;99.90
43185;DHT22;28803;52.308;19.096;2022-11-15T04:00:46;4.90;99.90
43185;DHT22;28803;52.308;19.096;2022-11-15T04:03:13;4.90;99.90
43185;DHT22;28803;52.308;19.096;2022-11-15T04:05:40;4.90;99.90
43185;DHT22;28803;52.308;19.096;2022-11-15T04:08:07;4.90;99.90
43185;DHT22;28803;52.308;19.096;2022-11-15T04:10:34;4.90;99.90
43185;DHT22;28803;52.308;19.096;2022-11-15T04:13:02;4.90;99.90
43185;DHT22;28803;52.308;19.096;2022-11-15T04:15:29;4.90;99.90
43185;DHT22;28803;52.308;19.096;2022-11-15T04:17:57;4.90;99.90
43185;DHT22;28803;52.308;19.096;2022-11-15T04:20:29;4.80;99.90
43185;DHT22;28803;52.308;19.096;2022-11-15T04:23:20;4.90;99.90
43185;DHT22;28803;52.308;19.096;2022-11-15T04:26:18;4.90;99.90
43185;DHT22;28803;52.308;19.096;2022-11-15T04:28:45;5.00;99.90
43185;DHT22;28803;52.308;19.096;2022-11-15T04:31:31;5.00;99.90
43185;DHT22;28803;52.308;19.096;2022-11-15T04:33:58;5.00;99.90
43185;DHT22;28803;52.308;19.096;2022-11-15T04:36:25;5.00;99.90
43185;DHT22;28803;52.308;19.096;2022-11-15T04:39:11;5.00;99.90
43185;DHT22;28803;52.308;19.096;2022-11-15T04:41:38;5.00;99.90
43185;DHT22;28803;52.308;19.096;2022-11-15T04:44:06;5.00;99.90
43185;DHT22;28803;52.308;19.096;2022-11-15T04:46:32;4.90;99.90
43185;DHT22;28803;52.308;19.096;2022-11-15T04:49:00;5.00;99.90
43185;DHT22;28803;52.308;19.096;2022-11-15T04:51:27;5.00;99.90
43185;DHT22;28803;52.308;19.096;2022-11-15T04:53:54;5.00;99.90
43185;DHT22;28803;52.308;19.096;2022-11-15T04:56:21;5.00;99.90
43185;DHT22;28803;52.308;19.096;2022-11-15T04:58:49;5.00;99.90
43185;DHT22;28803;52.308;19.096;2022-11-15T05:01:16;5.00;99.90
43185;DHT22;28803;52.308;19.096;2022-11-15T05:03:44;5.00;99.90
43185;DHT22;28803;52.308;19.096;2022-11-15T05:06:30;5.00;99.90
43185;DHT22;28803;52.308;19.096;2022-11-15T05:08:57;4.90;99.90
43185;DHT22;28803;52.308;19.096;2022-11-15T05:11:24;4.90;99.90
43185;DHT22;28803;52.308;19.096;2022-11-15T05:13:52;4.90;99.90
43185;DHT22;28803;52.308;19.096;2022-11-15T05:16:19;4.80;99.90
43185;DHT22;28803;52.308;19.096;2022-11-15T05:18:46;4.80;99.90
43185;DHT22;28803;52.308;19.096;2022-11-15T05:21:17;4.80;99.90
43185;DHT22;28803;52.308;19.096;2022-11-15T05:23:44;4.80;99.90
43185;DHT22;28803;52.308;19.096;2022-11-15T05:26:12;4.80;99.90
43185;DHT22;28803;52.308;19.096;2022-11-15T05:28:39;4.80;99.90
43185;DHT22;28803;52.308;19.096;2022-11-15T05:31:08;4.80;99.90
43185;DHT22;28803;52.308;19.096;2022-11-15T05:33:37;4.80;99.90
43185;DHT22;28803;52.308;19.096;2022-11-15T05:38:37;4.80;99.90
43185;DHT22;28803;52.308;19.096;2022-11-15T05:41:05;4.80;99.90
43185;DHT22;28803;52.308;19.096;2022-11-15T05:43:34;4.80;99.90
43185;DHT22;28803;52.308;19.096;2022-11-15T05:46:02;4.80;99.90
43185;DHT22;28803;52.308;19.096;2022-11-15T05:48:32;4.90;99.90
43185;DHT22;28803;52.308;19.096;2022-11-15T05:51:02;4.80;99.90
43185;DHT22;28803;52.308;19.096;2022-11-15T05:53:30;4.80;99.90
43185;DHT22;28803;52.308;19.096;2022-11-15T05:55:57;4.80;99.90
43185;DHT22;28803;52.308;19.096;2022-11-15T05:58:25;4.70;99.90
43185;DHT22;28803;52.308;19.096;2022-11-15T06:00:52;4.70;99.90
43185;DHT22;28803;52.308;19.096;2022-11-15T06:03:20;4.70;99.90
43185;DHT22;28803;52.308;19.096;2022-11-15T06:05:47;4.70;99.90
43185;DHT22;28803;52.308;19.096;2022-11-15T06:08:14;4.80;99.90
43185;DHT22;28803;52.308;19.096;2022-11-15T06:10:41;4.70;99.90
43185;DHT22;28803;52.308;19.096;2022-11-15T06:13:09;4.70;99.90
43185;DHT22;28803;52.308;19.096;2022-11-15T06:15:36;4.70;99.90
43185;DHT22;28803;52.308;19.096;2022-11-15T06:18:03;4.80;99.90
43185;DHT22;28803;52.308;19.096;2022-11-15T06:20:30;4.70;99.90
43185;DHT22;28803;52.308;19.096;2022-11-15T06:23:03;4.70;99.90
43185;DHT22;28803;52.308;19.096;2022-11-15T06:25:31;4.80;99.90
43185;DHT22;28803;52.308;19.096;2022-11-15T06:27:59;4.80;99.90
43185;DHT22;28803;52.308;19.096;2022-11-15T06:30:26;4.80;99.90
43185;DHT22;28803;52.308;19.096;2022-11-15T06:33:01;4.80;99.90
43185;DHT22;28803;52.308;19.096;2022-11-15T06:35:30;4.80;99.90
43185;DHT22;28803;52.308;19.096;2022-11-15T06:38:06;4.80;99.90
43185;DHT22;28803;52.308;19.096;2022-11-15T06:40:35;4.90;99.90
43185;DHT22;28803;52.308;19.096;2022-11-15T06:43:04;4.90;99.90
43185;DHT22;28803;52.308;19.096;2022-11-15T06:45:31;4.90;99.90
43185;DHT22;28803;52.308;19.096;2022-11-15T06:47:59;4.90;99.90
43185;DHT22;28803;52.308;19.096;2022-11-15T06:50:26;4.90;99.90
43185;DHT22;28803;52.308;19.096;2022-11-15T06:52:53;4.90;99.90
43185;DHT22;28803;52.308;19.096;2022-11-15T06:55:21;4.90;99.90
43185;DHT22;28803;52.308;19.096;2022-11-15T06:57:52;4.90;99.90
43185;DHT22;28803;52.308;19.096;2022-11-15T07:00:21;4.80;99.90
43185;DHT22;28803;52.308;19.096;2022-11-15T07:02:49;4.80;99.90
43185;DHT22;28803;52.308;19.096;2022-11-15T07:05:16;4.90;99.90
43185;DHT22;28803;52.308;19.096;2022-11-15T07:07:45;5.00;99.90
43185;DHT22;28803;52.308;19.096;2022-11-15T07:10:17;5.00;99.90
43185;DHT22;28803;52.308;19.096;2022-11-15T07:12:47;5.00;99.90
43185;DHT22;28803;52.308;19.096;2022-11-15T07:15:16;4.90;99.90
43185;DHT22;28803;52.308;19.096;2022-11-15T07:17:44;4.90;99.90
43185;DHT22;28803;52.308;19.096;2022-11-15T07:20:11;5.00;99.90
43185;DHT22;28803;52.308;19.096;2022-11-15T07:22:40;5.00;99.90
43185;DHT22;28803;52.308;19.096;2022-11-15T07:25:08;5.10;99.90
43185;DHT22;28803;52.308;19.096;2022-11-15T07:27:36;5.10;99.90
43185;DHT22;28803;52.308;19.096;2022-11-15T07:30:03;5.20;99.90
43185;DHT22;28803;52.308;19.096;2022-11-15T07:32:31;5.20;99.90
43185;DHT22;28803;52.308;19.096;2022-11-15T07:34:58;5.30;99.90
43185;DHT22;28803;52.308;19.096;2022-11-15T07:37:25;5.30;99.90
43185;DHT22;28803;52.308;19.096;2022-11-15T07:39:52;5.30;99.90
43185;DHT22;28803;52.308;19.096;2022-11-15T07:42:19;5.40;99.90
43185;DHT22;28803;52.308;19.096;2022-11-15T07:45:05;5.30;99.90
43185;DHT22;28803;52.308;19.096;2022-11-15T07:47:32;5.30;99.90
43185;DHT22;28803;52.308;19.096;2022-11-15T07:49:59;5.30;99.90
43185;DHT22;28803;52.308;19.096;2022-11-15T07:52:26;5.30;99.90
43185;DHT22;28803;52.308;19.096;2022-11-15T07:54:53;5.20;99.90
43185;DHT22;28803;52.308;19.096;2022-11-15T07:57:20;5.40;99.90
43185;DHT22;28803;52.308;19.096;2022-11-15T07:59:47;5.40;99.90
43185;DHT22;28803;52.308;19.096;2022-11-15T08:02:15;5.40;99.90
43185;DHT22;28803;52.308;19.096;2022-11-15T08:04:44;5.30;99.90
43185;DHT22;28803;52.308;19.096;2022-11-15T08:07:12;5.30;99.90
43185;DHT22;28803;52.308;19.096;2022-11-15T08:09:39;5.20;99.90
43185;DHT22;28803;52.308;19.096;2022-11-15T08:12:06;5.20;99.90
43185;DHT22;28803;52.308;19.096;2022-11-15T08:14:34;5.20;99.90
43185;DHT22;28803;52.308;19.096;2022-11-15T08:17:02;5.20;99.90
43185;DHT22;28803;52.308;19.096;2022-11-15T08:19:29;5.30;99.90
43185;DHT22;28803;52.308;19.096;2022-11-15T08:21:56;5.40;99.90
43185;DHT22;28803;52.308;19.096;2022-11-15T08:24:23;5.40;99.90
43185;DHT22;28803;52.308;19.096;2022-11-15T08:26:50;5.40;99.90
43185;DHT22;28803;52.308;19.096;2022-11-15T08:29:17;5.40;99.90
43185;DHT22;28803;52.308;19.096;2022-11-15T08:31:45;5.40;99.90
43185;DHT22;28803;52.308;19.096;2022-11-15T08:34:12;5.40;99.90
43185;DHT22;28803;52.308;19.096;2022-11-15T08:36:39;5.30;99.90
43185;DHT22;28803;52.308;19.096;2022-11-15T08:39:11;5.40;99.90
43185;DHT22;28803;52.308;19.096;2022-11-15T08:41:39;5.40;99.90
43185;DHT22;28803;52.308;19.096;2022-11-15T08:44:06;5.40;99.90
43185;DHT22;28803;52.308;19.096;2022-11-15T08:46:33;5.40;99.90
43185;DHT22;28803;52.308;19.096;2022-11-15T08:49:00;5.40;99.90
43185;DHT22;28803;52.308;19.096;2022-11-15T08:51:27;5.40;99.90
43185;DHT22;28803;52.308;19.096;2022-11-15T08:53:54;5.40;99.90
43185;DHT22;28803;52.308;19.096;2022-11-15T08:56:22;5.40;99.90
43185;DHT22;28803;52.308;19.096;2022-11-15T08:58:49;5.50;99.90
43185;DHT22;28803;52.308;19.096;2022-11-15T09:01:18;5.60;99.90
43185;DHT22;28803;52.308;19.096;2022-11-15T09:03:46;5.60;99.90
43185;DHT22;28803;52.308;19.096;2022-11-15T09:06:13;5.60;99.90
43185;DHT22;28803;52.308;19.096;2022-11-15T09:08:41;5.60;99.90
43185;DHT22;28803;52.308;19.096;2022-11-15T09:11:16;5.60;99.90
43185;DHT22;28803;52.308;19.096;2022-11-15T09:13:46;5.60;99.90
43185;DHT22;28803;52.308;19.096;2022-11-15T09:16:14;5.60;99.90
43185;DHT22;28803;52.308;19.096;2022-11-15T09:18:42;5.80;99.90
43185;DHT22;28803;52.308;19.096;2022-11-15T09:21:09;5.90;99.90
43185;DHT22;28803;52.308;19.096;2022-11-15T09:23:37;6.00;99.90
43185;DHT22;28803;52.308;19.096;2022-11-15T09:26:05;6.00;99.90
43185;DHT22;28803;52.308;19.096;2022-11-15T09:28:33;6.10;99.90
43185;DHT22;28803;52.308;19.096;2022-11-15T09:31:04;6.10;99.90
43185;DHT22;28803;52.308;19.096;2022-11-15T09:33:31;6.10;99.90
43185;DHT22;28803;52.308;19.096;2022-11-15T09:36:09;6.20;99.90
43185;DHT22;28803;52.308;19.096;2022-11-15T09:38:36;6.20;99.90
43185;DHT22;28803;52.308;19.096;2022-11-15T09:41:18;6.20;99.90
43185;DHT22;28803;52.308;19.096;2022-11-15T09:46:54;6.20;99.90
43185;DHT22;28803;52.308;19.096;2022-11-15T09:49:23;6.20;99.90
43185;DHT22;28803;52.308;19.096;2022-11-15T09:51:53;6.30;99.90
43185;DHT22;28803;52.308;19.096;2022-11-15T09:57:38;6.40;99.90
43185;DHT22;28803;52.308;19.096;2022-11-15T10:05:55;6.50;99.90
43185;DHT22;28803;52.308;19.096;2022-11-15T10:11:19;6.60;99.90
43185;DHT22;28803;52.308;19.096;2022-11-15T10:14:10;6.60;99.90
43185;DHT22;28803;52.308;19.096;2022-11-15T10:22:44;6.90;99.90
43185;DHT22;28803;52.308;19.096;2022-11-15T10:25:24;7.00;99.90
43185;DHT22;28803;52.308;19.096;2022-11-15T10:27:55;7.00;99.90
43185;DHT22;28803;52.308;19.096;2022-11-15T10:30:23;7.00;99.90
43185;DHT22;28803;52.308;19.096;2022-11-15T10:32:55;7.00;99.90
43185;DHT22;28803;52.308;19.096;2022-11-15T10:35:26;7.10;99.90
43185;DHT22;28803;52.308;19.096;2022-11-15T10:38:05;7.10;99.90
43185;DHT22;28803;52.308;19.096;2022-11-15T10:40:34;7.10;99.90
43185;DHT22;28803;52.308;19.096;2022-11-15T10:45:37;7.00;99.90
43185;DHT22;28803;52.308;19.096;2022-11-15T10:50:46;6.80;99.90
43185;DHT22;28803;52.308;19.096;2022-11-15T10:53:23;6.70;99.90
43185;DHT22;28803;52.308;19.096;2022-11-15T10:55:57;6.70;99.90
43185;DHT22;28803;52.308;19.096;2022-11-15T10:58:41;6.70;99.90
43185;DHT22;28803;52.308;19.096;2022-11-15T11:01:13;6.60;99.90
43185;DHT22;28803;52.308;19.096;2022-11-15T11:03:42;6.50;99.90
43185;DHT22;28803;52.308;19.096;2022-11-15T11:06:17;6.40;99.90
43185;DHT22;28803;52.308;19.096;2022-11-15T11:09:04;6.40;99.90
43185;DHT22;28803;52.308;19.096;2022-11-15T11:11:46;6.40;99.90
43185;DHT22;28803;52.308;19.096;2022-11-15T11:14:27;6.50;99.90
43185;DHT22;28803;52.308;19.096;2022-11-15T11:17:05;6.60;99.90
43185;DHT22;28803;52.308;19.096;2022-11-15T11:19:45;6.60;99.90
43185;DHT22;28803;52.308;19.096;2022-11-15T11:26:00;6.70;99.90
43185;DHT22;28803;52.308;19.096;2022-11-15T11:28:40;6.60;99.90
43185;DHT22;28803;52.308;19.096;2022-11-15T11:31:20;6.50;99.90
43185;DHT22;28803;52.308;19.096;2022-11-15T11:34:03;6.50;99.90
43185;DHT22;28803;52.308;19.096;2022-11-15T11:40:00;6.60;99.90
43185;DHT22;28803;52.308;19.096;2022-11-15T11:42:45;6.70;99.90
43185;DHT22;28803;52.308;19.096;2022-11-15T11:50:38;6.70;99.90
43185;DHT22;28803;52.308;19.096;2022-11-15T11:53:17;6.70;99.90
43185;DHT22;28803;52.308;19.096;2022-11-15T11:55:54;6.50;99.90
43185;DHT22;28803;52.308;19.096;2022-11-15T11:58:38;6.40;99.90
43185;DHT22;28803;52.308;19.096;2022-11-15T12:01:27;6.30;99.90
43185;DHT22;28803;52.308;19.096;2022-11-15T12:04:08;6.20;99.90
43185;DHT22;28803;52.308;19.096;2022-11-15T12:06:38;6.20;99.90
43185;DHT22;28803;52.308;19.096;2022-11-15T12:11:53;6.10;99.90
43185;DHT22;28803;52.308;19.096;2022-11-15T12:14:38;6.10;99.90
43185;DHT22;28803;52.308;19.096;2022-11-15T12:17:09;6.10;99.90
43185;DHT22;28803;52.308;19.096;2022-11-15T12:19:38;6.00;99.90
43185;DHT22;28803;52.308;19.096;2022-11-15T12:24:54;6.00;99.90
43185;DHT22;28803;52.308;19.096;2022-11-15T12:30:15;6.10;99.90
43185;DHT22;28803;52.308;19.096;2022-11-15T12:32:52;6.10;99.90
43185;DHT22;28803;52.308;19.096;2022-11-15T12:35:45;6.10;99.90
43185;DHT22;28803;52.308;19.096;2022-11-15T12:38:12;6.10;99.90
43185;DHT22;28803;52.308;19.096;2022-11-15T12:41:14;6.10;99.90
43185;DHT22;28803;52.308;19.096;2022-11-15T12:43:43;6.00;99.90
43185;DHT22;28803;52.308;19.096;2022-11-15T12:46:23;6.00;99.90
43185;DHT22;28803;52.308;19.096;2022-11-15T12:49:01;6.00;99.90
43185;DHT22;28803;52.308;19.096;2022-11-15T12:59:53;6.20;99.90
43185;DHT22;28803;52.308;19.096;2022-11-15T13:02:22;6.30;99.90
43185;DHT22;28803;52.308;19.096;2022-11-15T13:04:52;6.30;99.90
43185;DHT22;28803;52.308;19.096;2022-11-15T13:17:43;6.30;99.90
43185;DHT22;28803;52.308;19.096;2022-11-15T13:22:46;6.30;99.90
43185;DHT22;28803;52.308;19.096;2022-11-15T13:30:37;6.30;99.90
43185;DHT22;28803;52.308;19.096;2022-11-15T13:33:13;6.30;99.90
43185;DHT22;28803;52.308;19.096;2022-11-15T13:35:47;6.10;99.90
43185;DHT22;28803;52.308;19.096;2022-11-15T13:40:51;6.00;99.90
43185;DHT22;28803;52.308;19.096;2022-11-15T13:46:12;5.80;99.90
43185;DHT22;28803;52.308;19.096;2022-11-15T13:48:41;5.70;99.90
43185;DHT22;28803;52.308;19.096;2022-11-15T13:53:53;5.60;99.90
43185;DHT22;28803;52.308;19.096;2022-11-15T13:56:22;5.50;99.90
43185;DHT22;28803;52.308;19.096;2022-11-15T13:58:49;5.50;99.90
43185;DHT22;28803;52.308;19.096;2022-11-15T14:01:19;5.50;99.90
43185;DHT22;28803;52.308;19.096;2022-11-15T14:03:56;5.50;99.90
43185;DHT22;28803;52.308;19.096;2022-11-15T14:06:27;5.50;99.90
43185;DHT22;28803;52.308;19.096;2022-11-15T14:11:55;5.40;99.90
43185;DHT22;28803;52.308;19.096;2022-11-15T14:14:24;5.50;99.90
43185;DHT22;28803;52.308;19.096;2022-11-15T14:16:53;5.40;99.90
43185;DHT22;28803;52.308;19.096;2022-11-15T14:24:46;5.40;99.90
43185;DHT22;28803;52.308;19.096;2022-11-15T14:27:21;5.30;99.90
43185;DHT22;28803;52.308;19.096;2022-11-15T14:29:49;5.30;99.90
43185;DHT22;28803;52.308;19.096;2022-11-15T14:32:37;5.30;99.90
43185;DHT22;28803;52.308;19.096;2022-11-15T14:35:17;5.30;99.90
43185;DHT22;28803;52.308;19.096;2022-11-15T14:37:45;5.30;99.90
43185;DHT22;28803;52.308;19.096;2022-11-15T14:40:18;5.30;99.90
43185;DHT22;28803;52.308;19.096;2022-11-15T14:42:46;5.30;99.90
43185;DHT22;28803;52.308;19.096;2022-11-15T14:45:21;5.20;99.90
43185;DHT22;28803;52.308;19.096;2022-11-15T14:47:48;5.10;99.90
43185;DHT22;28803;52.308;19.096;2022-11-15T14:50:18;5.10;99.90
43185;DHT22;28803;52.308;19.096;2022-11-15T14:52:45;5.10;99.90
43185;DHT22;28803;52.308;19.096;2022-11-15T14:55:22;5.10;99.90
43185;DHT22;28803;52.308;19.096;2022-11-15T14:57:51;5.00;99.90
43185;DHT22;28803;52.308;19.096;2022-11-15T15:00:19;5.00;99.90
43185;DHT22;28803;52.308;19.096;2022-11-15T15:02:48;5.10;99.90
43185;DHT22;28803;52.308;19.096;2022-11-15T15:05:34;5.10;99.90
43185;DHT22;28803;52.308;19.096;2022-11-15T15:08:02;5.10;99.90
43185;DHT22;28803;52.308;19.096;2022-11-15T15:10:40;5.10;99.90
43185;DHT22;28803;52.308;19.096;2022-11-15T15:15:43;5.00;99.90
43185;DHT22;28803;52.308;19.096;2022-11-15T15:18:11;4.90;99.90
43185;DHT22;28803;52.308;19.096;2022-11-15T15:20:39;4.80;99.90
43185;DHT22;28803;52.308;19.096;2022-11-15T15:23:20;4.80;99.90
43185;DHT22;28803;52.308;19.096;2022-11-15T15:25:47;4.80;99.90
43185;DHT22;28803;52.308;19.096;2022-11-15T15:28:16;4.80;99.90
43185;DHT22;28803;52.308;19.096;2022-11-15T15:30:43;4.80;99.90
43185;DHT22;28803;52.308;19.096;2022-11-15T15:33:10;4.80;99.90
43185;DHT22;28803;52.308;19.096;2022-11-15T15:35:37;4.80;99.90
43185;DHT22;28803;52.308;19.096;2022-11-15T15:38:04;4.80;99.90
43185;DHT22;28803;52.308;19.096;2022-11-15T15:40:33;4.90;99.90
43185;DHT22;28803;52.308;19.096;2022-11-15T15:43:00;4.80;99.90
43185;DHT22;28803;52.308;19.096;2022-11-15T15:45:28;4.80;99.90
43185;DHT22;28803;52.308;19.096;2022-11-15T15:47:56;4.80;99.90
43185;DHT22;28803;52.308;19.096;2022-11-15T15:50:29;4.80;99.90
43185;DHT22;28803;52.308;19.096;2022-11-15T15:52:58;4.80;99.90
43185;DHT22;28803;52.308;19.096;2022-11-15T15:55:26;4.70;99.90
43185;DHT22;28803;52.308;19.096;2022-11-15T15:57:54;4.70;99.90
43185;DHT22;28803;52.308;19.096;2022-11-15T16:00:22;4.70;99.90
43185;DHT22;28803;52.308;19.096;2022-11-15T16:02:52;4.80;99.90
43185;DHT22;28803;52.308;19.096;2022-11-15T16:05:21;4.70;99.90
43185;DHT22;28803;52.308;19.096;2022-11-15T16:07:48;4.70;99.90
43185;DHT22;28803;52.308;19.096;2022-11-15T16:10:31;4.70;99.90
43185;DHT22;28803;52.308;19.096;2022-11-15T16:12:58;4.70;99.90
43185;DHT22;28803;52.308;19.096;2022-11-15T16:15:27;4.70;99.90
43185;DHT22;28803;52.308;19.096;2022-11-15T16:17:58;4.70;99.90
43185;DHT22;28803;52.308;19.096;2022-11-15T16:23:07;4.60;99.90
43185;DHT22;28803;52.308;19.096;2022-11-15T16:25:48;4.50;99.90
43185;DHT22;28803;52.308;19.096;2022-11-15T16:28:30;4.50;99.90
43185;DHT22;28803;52.308;19.096;2022-11-15T16:31:24;4.50;99.90
43185;DHT22;28803;52.308;19.096;2022-11-15T16:33:52;4.50;99.90
43185;DHT22;28803;52.308;19.096;2022-11-15T16:36:24;4.50;99.90
43185;DHT22;28803;52.308;19.096;2022-11-15T16:38:57;4.50;99.90
43185;DHT22;28803;52.308;19.096;2022-11-15T16:41:24;4.40;99.90
43185;DHT22;28803;52.308;19.096;2022-11-15T16:43:52;4.50;99.90
43185;DHT22;28803;52.308;19.096;2022-11-15T16:46:21;4.40;99.90
43185;DHT22;28803;52.308;19.096;2022-11-15T16:48:49;4.40;99.90
43185;DHT22;28803;52.308;19.096;2022-11-15T16:51:16;4.40;99.90
43185;DHT22;28803;52.308;19.096;2022-11-15T16:53:44;4.40;99.90
43185;DHT22;28803;52.308;19.096;2022-11-15T16:56:18;4.40;99.90
43185;DHT22;28803;52.308;19.096;2022-11-15T16:58:46;4.40;99.90
43185;DHT22;28803;52.308;19.096;2022-11-15T17:01:18;4.50;99.90
43185;DHT22;28803;52.308;19.096;2022-11-15T17:03:46;4.50;99.90
43185;DHT22;28803;52.308;19.096;2022-11-15T17:06:13;4.60;99.90
43185;DHT22;28803;52.308;19.096;2022-11-15T17:08:41;4.60;99.90
43185;DHT22;28803;52.308;19.096;2022-11-15T17:11:09;4.60;99.90
43185;DHT22;28803;52.308;19.096;2022-11-15T17:13:37;4.50;99.90
43185;DHT22;28803;52.308;19.096;2022-11-15T17:16:07;4.40;99.90
43185;DHT22;28803;52.308;19.096;2022-11-15T17:18:35;4.40;99.90
43185;DHT22;28803;52.308;19.096;2022-11-15T17:21:15;4.40;99.90
43185;DHT22;28803;52.308;19.096;2022-11-15T17:23:43;4.40;99.90
43185;DHT22;28803;52.308;19.096;2022-11-15T17:26:11;4.50;99.90
43185;DHT22;28803;52.308;19.096;2022-11-15T17:28:59;4.50;99.90
43185;DHT22;28803;52.308;19.096;2022-11-15T17:31:27;4.50;99.90
43185;DHT22;28803;52.308;19.096;2022-11-15T17:33:57;4.50;99.90
43185;DHT22;28803;52.308;19.096;2022-11-15T17:36:24;4.60;99.90
43185;DHT22;28803;52.308;19.096;2022-11-15T17:38:51;4.50;99.90
43185;DHT22;28803;52.308;19.096;2022-11-15T17:41:25;4.50;99.90
43185;DHT22;28803;52.308;19.096;2022-11-15T17:43:52;4.50;99.90
43185;DHT22;28803;52.308;19.096;2022-11-15T17:46:21;4.50;99.90
43185;DHT22;28803;52.308;19.096;2022-11-15T17:48:48;4.50;99.90
43185;DHT22;28803;52.308;19.096;2022-11-15T17:51:17;4.50;99.90
43185;DHT22;28803;52.308;19.096;2022-11-15T17:53:46;4.60;99.90
43185;DHT22;28803;52.308;19.096;2022-11-15T17:56:19;4.60;99.90
43185;DHT22;28803;52.308;19.096;2022-11-15T17:58:55;4.50;99.90